sensor_id;sensor_type;location;lat;lon;timestamp;pressure;altitude;pressure_sealevel;temperature;humidity
48630;BME280;34426;52.180;4.462;2022-07-24T00:00:40;150710.94;;;19.09;89.63
48630;BME280;34426;52.180;4.462;2022-07-24T00:03:08;150709.72;;;19.08;89.42
48630;BME280;34426;52.180;4.462;2022-07-24T00:05:35;150717.25;;;19.11;88.88
48630;BME280;34426;52.180;4.462;2022-07-24T00:08:03;150698.41;;;19.04;89.19
48630;BME280;34426;52.180;4.462;2022-07-24T00:10:30;150684.63;;;18.98;89.55
48630;BME280;34426;52.180;4.462;2022-07-24T00:12:58;150678.38;;;18.95;89.21
48630;BME280;34426;52.180;4.462;2022-07-24T00:15:27;150678.38;;;18.95;89.14
48630;BME280;34426;52.180;4.462;2022-07-24T00:17:54;150680.88;;;18.97;88.96
48630;BME280;34426;52.180;4.462;2022-07-24T00:20:22;150684.63;;;18.98;89.05
48630;BME280;34426;52.180;4.462;2022-07-24T00:22:49;150710.94;;;19.09;88.06
48630;BME280;34426;52.180;4.462;2022-07-24T00:25:16;150700.94;;;19.05;88.34
48630;BME280;34426;52.180;4.462;2022-07-24T00:27:43;150700.94;;;19.05;88.18
48630;BME280;34426;52.180;4.462;2022-07-24T00:30:12;150697.19;;;19.03;88.31
48630;BME280;34426;52.180;4.462;2022-07-24T00:32:41;150687.16;;;18.99;88.58
48630;BME280;34426;52.180;4.462;2022-07-24T00:35:08;150672.09;;;18.93;88.92
48630;BME280;34426;52.180;4.462;2022-07-24T00:37:36;150668.34;;;18.91;89.21
48630;BME280;34426;52.180;4.462;2022-07-24T00:40:03;150668.34;;;18.91;89.50
48630;BME280;34426;52.180;4.462;2022-07-24T00:42:31;150680.88;;;18.97;89.39
48630;BME280;34426;52.180;4.462;2022-07-24T00:44:59;150675.88;;;18.94;89.66
48630;BME280;34426;52.180;4.462;2022-07-24T00:47:26;150657.09;;;18.87;89.29
48630;BME280;34426;52.180;4.462;2022-07-24T00:49:55;150670.84;;;18.92;89.79
48630;BME280;34426;52.180;4.462;2022-07-24T00:52:22;150659.56;;;18.88;90.27
48630;BME280;34426;52.180;4.462;2022-07-24T00:54:50;150653.31;;;18.85;90.38
48630;BME280;34426;52.180;4.462;2022-07-24T00:57:17;150638.19;;;18.79;90.95
48630;BME280;34426;52.180;4.462;2022-07-24T00:59:44;150645.78;;;18.82;90.58
48630;BME280;34426;52.180;4.462;2022-07-24T01:02:12;150626.91;;;18.74;91.31
48630;BME280;34426;52.180;4.462;2022-07-24T01:04:40;150620.66;;;18.72;91.53
48630;BME280;34426;52.180;4.462;2022-07-24T01:07:09;150613.13;;;18.69;91.78
48630;BME280;34426;52.180;4.462;2022-07-24T01:09:36;150606.88;;;18.66;92.14
48630;BME280;34426;52.180;4.462;2022-07-24T01:12:04;150604.34;;;18.65;92.25
48630;BME280;34426;52.180;4.462;2022-07-24T01:14:32;150596.81;;;18.62;92.51
48630;BME280;34426;52.180;4.462;2022-07-24T01:17:00;150593.06;;;18.61;92.47
48630;BME280;34426;52.180;4.462;2022-07-24T01:19:27;150584.28;;;18.57;92.77
48630;BME280;34426;52.180;4.462;2022-07-24T01:21:56;150598.13;;;18.63;92.75
48630;BME280;34426;52.180;4.462;2022-07-24T01:24:23;150593.06;;;18.61;92.87
48630;BME280;34426;52.180;4.462;2022-07-24T01:26:51;150583.06;;;18.56;93.09
48630;BME280;34426;52.180;4.462;2022-07-24T01:29:19;150576.75;;;18.54;93.17
48630;BME280;34426;52.180;4.462;2022-07-24T01:31:46;150560.50;;;18.47;93.42
48630;BME280;34426;52.180;4.462;2022-07-24T01:34:14;150562.97;;;18.48;93.42
48630;BME280;34426;52.180;4.462;2022-07-24T01:36:41;150551.69;;;18.44;93.59
48630;BME280;34426;52.180;4.462;2022-07-24T01:39:10;150535.44;;;18.37;94.09
48630;BME280;34426;52.180;4.462;2022-07-24T01:41:37;150545.44;;;18.41;94.11
48630;BME280;34426;52.180;4.462;2022-07-24T01:44:04;150550.44;;;18.43;93.59
48630;BME280;34426;52.180;4.462;2022-07-24T01:46:32;150545.44;;;18.41;93.56
48630;BME280;34426;52.180;4.462;2022-07-24T01:48:59;150530.38;;;18.35;93.87
48630;BME280;34426;52.180;4.462;2022-07-24T01:51:27;150531.66;;;18.35;93.84
48630;BME280;34426;52.180;4.462;2022-07-24T01:53:54;150517.84;;;18.30;93.64
48630;BME280;34426;52.180;4.462;2022-07-24T01:56:23;150509.09;;;18.26;94.10
48630;BME280;34426;52.180;4.462;2022-07-24T01:58:51;150517.84;;;18.30;93.92
48630;BME280;34426;52.180;4.462;2022-07-24T02:01:18;150504.06;;;18.24;93.61
48630;BME280;34426;52.180;4.462;2022-07-24T02:03:45;150497.84;;;18.22;93.78
48630;BME280;34426;52.180;4.462;2022-07-24T02:06:13;150504.06;;;18.24;93.68
48630;BME280;34426;52.180;4.462;2022-07-24T02:08:40;150496.56;;;18.21;93.82
48630;BME280;34426;52.180;4.462;2022-07-24T02:11:08;150500.31;;;18.23;93.70
48630;BME280;34426;52.180;4.462;2022-07-24T02:13:37;150494.06;;;18.20;93.97
48630;BME280;34426;52.180;4.462;2022-07-24T02:16:05;150495.31;;;18.20;94.20
48630;BME280;34426;52.180;4.462;2022-07-24T02:18:32;150479.00;;;18.14;94.92
48630;BME280;34426;52.180;4.462;2022-07-24T02:21:00;150471.47;;;18.11;95.17
48630;BME280;34426;52.180;4.462;2022-07-24T02:23:27;150471.47;;;18.11;95.30
48630;BME280;34426;52.180;4.462;2022-07-24T02:25:55;150457.72;;;18.05;95.65
48630;BME280;34426;52.180;4.462;2022-07-24T02:28:22;150470.25;;;18.10;95.98
48630;BME280;34426;52.180;4.462;2022-07-24T02:30:51;150481.53;;;18.15;95.88
48630;BME280;34426;52.180;4.462;2022-07-24T02:33:19;150470.25;;;18.10;96.26
48630;BME280;34426;52.180;4.462;2022-07-24T02:35:46;150456.47;;;18.05;96.67
48630;BME280;34426;52.180;4.462;2022-07-24T02:38:13;150456.47;;;18.05;96.91
48630;BME280;34426;52.180;4.462;2022-07-24T02:40:40;150441.41;;;17.98;97.16
48630;BME280;34426;52.180;4.462;2022-07-24T02:43:08;150443.94;;;17.99;97.44
48630;BME280;34426;52.180;4.462;2022-07-24T02:45:35;150435.19;;;17.96;97.85
48630;BME280;34426;52.180;4.462;2022-07-24T02:48:06;150431.41;;;17.94;98.16
48630;BME280;34426;52.180;4.462;2022-07-24T02:50:34;150437.66;;;17.97;98.27
48630;BME280;34426;52.180;4.462;2022-07-24T02:53:01;150427.66;;;17.93;98.35
48630;BME280;34426;52.180;4.462;2022-07-24T02:55:28;150437.66;;;17.97;98.72
48630;BME280;34426;52.180;4.462;2022-07-24T02:57:55;150441.41;;;17.98;98.13
48630;BME280;34426;52.180;4.462;2022-07-24T03:00:23;150436.41;;;17.96;98.71
48630;BME280;34426;52.180;4.462;2022-07-24T03:02:51;150425.13;;;17.92;98.57
48630;BME280;34426;52.180;4.462;2022-07-24T03:05:20;150415.13;;;17.88;98.98
48630;BME280;34426;52.180;4.462;2022-07-24T03:07:48;150403.78;;;17.83;99.14
48630;BME280;34426;52.180;4.462;2022-07-24T03:10:16;150412.59;;;17.87;98.82
48630;BME280;34426;52.180;4.462;2022-07-24T03:12:43;150416.34;;;17.88;98.90
48630;BME280;34426;52.180;4.462;2022-07-24T03:15:12;150397.53;;;17.80;99.15
48630;BME280;34426;52.180;4.462;2022-07-24T03:17:46;150392.53;;;17.78;99.25
48630;BME280;34426;52.180;4.462;2022-07-24T03:20:15;150392.53;;;17.78;99.32
48630;BME280;34426;52.180;4.462;2022-07-24T03:22:45;150385.00;;;17.75;98.98
48630;BME280;34426;52.180;4.462;2022-07-24T03:25:13;150369.94;;;17.69;99.33
48630;BME280;34426;52.180;4.462;2022-07-24T03:27:40;150353.66;;;17.62;99.21
48630;BME280;34426;52.180;4.462;2022-07-24T03:30:09;150343.66;;;17.58;99.65
48630;BME280;34426;52.180;4.462;2022-07-24T03:32:37;150344.91;;;17.59;99.58
48630;BME280;34426;52.180;4.462;2022-07-24T03:35:05;150323.59;;;17.50;99.47
48630;BME280;34426;52.180;4.462;2022-07-24T03:37:32;150314.84;;;17.46;99.68
48630;BME280;34426;52.180;4.462;2022-07-24T03:40:03;150321.13;;;17.49;99.66
48630;BME280;34426;52.180;4.462;2022-07-24T03:42:30;150312.34;;;17.45;99.93
48630;BME280;34426;52.180;4.462;2022-07-24T03:44:57;150292.31;;;17.37;100.00
48630;BME280;34426;52.180;4.462;2022-07-24T03:47:25;150317.38;;;17.48;99.67
48630;BME280;34426;52.180;4.462;2022-07-24T03:49:52;150309.84;;;17.44;99.84
48630;BME280;34426;52.180;4.462;2022-07-24T03:52:19;150299.84;;;17.40;99.93
48630;BME280;34426;52.180;4.462;2022-07-24T03:54:47;150302.31;;;17.41;100.00
48630;BME280;34426;52.180;4.462;2022-07-24T03:57:16;150312.34;;;17.45;100.00
48630;BME280;34426;52.180;4.462;2022-07-24T03:59:43;150323.59;;;17.50;99.54
48630;BME280;34426;52.180;4.462;2022-07-24T04:02:11;150334.88;;;17.55;99.61
48630;BME280;34426;52.180;4.462;2022-07-24T04:04:38;150319.84;;;17.49;99.76
48630;BME280;34426;52.180;4.462;2022-07-24T04:07:05;150319.84;;;17.49;99.95
48630;BME280;34426;52.180;4.462;2022-07-24T04:09:33;150314.84;;;17.46;99.53
48630;BME280;34426;52.180;4.462;2022-07-24T04:12:00;150307.31;;;17.43;99.80
48630;BME280;34426;52.180;4.462;2022-07-24T04:14:29;150294.78;;;17.38;99.74
48630;BME280;34426;52.180;4.462;2022-07-24T04:16:57;150313.59;;;17.46;99.60
48630;BME280;34426;52.180;4.462;2022-07-24T04:19:24;150312.34;;;17.45;99.33
48630;BME280;34426;52.180;4.462;2022-07-24T04:21:52;150308.59;;;17.44;99.03
48630;BME280;34426;52.180;4.462;2022-07-24T04:24:19;150304.84;;;17.42;99.40
48630;BME280;34426;52.180;4.462;2022-07-24T04:26:46;150324.88;;;17.51;99.16
48630;BME280;34426;52.180;4.462;2022-07-24T04:29:14;150331.13;;;17.53;98.91
48630;BME280;34426;52.180;4.462;2022-07-24T04:31:43;150328.59;;;17.52;99.00
48630;BME280;34426;52.180;4.462;2022-07-24T04:34:10;150332.38;;;17.54;98.83
48630;BME280;34426;52.180;4.462;2022-07-24T04:36:38;150344.91;;;17.59;98.84
48630;BME280;34426;52.180;4.462;2022-07-24T04:39:05;150347.41;;;17.60;98.27
48630;BME280;34426;52.180;4.462;2022-07-24T04:41:32;150362.47;;;17.66;98.17
48630;BME280;34426;52.180;4.462;2022-07-24T04:44:00;150380.00;;;17.73;97.59
48630;BME280;34426;52.180;4.462;2022-07-24T04:46:27;150367.47;;;17.68;97.74
48630;BME280;34426;52.180;4.462;2022-07-24T04:48:56;150376.25;;;17.72;97.75
48630;BME280;34426;52.180;4.462;2022-07-24T04:51:24;150378.72;;;17.73;97.78
48630;BME280;34426;52.180;4.462;2022-07-24T04:53:51;150381.25;;;17.74;97.92
48630;BME280;34426;52.180;4.462;2022-07-24T04:56:18;150385.00;;;17.75;98.14
48630;BME280;34426;52.180;4.462;2022-07-24T04:58:46;150383.78;;;17.75;98.30
48630;BME280;34426;52.180;4.462;2022-07-24T05:01:13;150385.00;;;17.75;98.44
48630;BME280;34426;52.180;4.462;2022-07-24T05:03:40;150401.28;;;17.82;98.34
48630;BME280;34426;52.180;4.462;2022-07-24T05:06:10;150405.06;;;17.83;98.60
48630;BME280;34426;52.180;4.462;2022-07-24T05:08:37;150396.28;;;17.80;98.52
48630;BME280;34426;52.180;4.462;2022-07-24T05:11:04;150403.78;;;17.83;98.81
48630;BME280;34426;52.180;4.462;2022-07-24T05:13:32;150412.59;;;17.87;98.79
48630;BME280;34426;52.180;4.462;2022-07-24T05:15:59;150428.88;;;17.93;98.49
48630;BME280;34426;52.180;4.462;2022-07-24T05:18:26;150438.94;;;17.97;98.01
48630;BME280;34426;52.180;4.462;2022-07-24T05:20:54;150443.94;;;17.99;97.71
48630;BME280;34426;52.180;4.462;2022-07-24T05:23:23;150457.72;;;18.05;98.03
48630;BME280;34426;52.180;4.462;2022-07-24T05:25:50;150479.00;;;18.14;97.61
48630;BME280;34426;52.180;4.462;2022-07-24T05:28:18;150496.56;;;18.21;97.87
48630;BME280;34426;52.180;4.462;2022-07-24T05:30:45;150524.16;;;18.32;97.00
48630;BME280;34426;52.180;4.462;2022-07-24T05:33:13;150571.75;;;18.52;96.10
48630;BME280;34426;52.180;4.462;2022-07-24T05:35:40;150605.59;;;18.66;94.70
48630;BME280;34426;52.180;4.462;2022-07-24T05:38:07;150633.19;;;18.77;93.13
48630;BME280;34426;52.180;4.462;2022-07-24T05:40:37;150652.03;;;18.85;91.56
48630;BME280;34426;52.180;4.462;2022-07-24T05:43:04;150663.31;;;18.89;91.68
48630;BME280;34426;52.180;4.462;2022-07-24T05:45:31;150672.09;;;18.93;91.99
48630;BME280;34426;52.180;4.462;2022-07-24T05:47:59;150682.09;;;18.97;92.32
48630;BME280;34426;52.180;4.462;2022-07-24T05:50:26;150695.94;;;19.03;91.27
48630;BME280;34426;52.180;4.462;2022-07-24T05:52:53;150710.94;;;19.09;91.00
48630;BME280;34426;52.180;4.462;2022-07-24T05:55:21;150722.25;;;19.13;90.54
48630;BME280;34426;52.180;4.462;2022-07-24T05:57:50;150722.25;;;19.13;90.28
48630;BME280;34426;52.180;4.462;2022-07-24T06:00:17;150719.72;;;19.12;89.89
48630;BME280;34426;52.180;4.462;2022-07-24T06:02:45;150718.47;;;19.12;90.53
48630;BME280;34426;52.180;4.462;2022-07-24T06:05:13;150722.25;;;19.13;90.48
48630;BME280;34426;52.180;4.462;2022-07-24T06:07:41;150718.47;;;19.12;90.16
48630;BME280;34426;52.180;4.462;2022-07-24T06:10:09;150700.94;;;19.05;90.15
48630;BME280;34426;52.180;4.462;2022-07-24T06:12:36;150704.72;;;19.06;90.26
48630;BME280;34426;52.180;4.462;2022-07-24T06:15:06;150697.19;;;19.03;90.40
48630;BME280;34426;52.180;4.462;2022-07-24T06:17:34;150693.41;;;19.02;91.06
48630;BME280;34426;52.180;4.462;2022-07-24T06:20:01;150702.19;;;19.05;91.47
48630;BME280;34426;52.180;4.462;2022-07-24T06:22:29;150728.50;;;19.16;91.24
48630;BME280;34426;52.180;4.462;2022-07-24T06:24:56;150772.41;;;19.34;89.75
48630;BME280;34426;52.180;4.462;2022-07-24T06:27:23;150798.75;;;19.45;88.19
48630;BME280;34426;52.180;4.462;2022-07-24T06:29:50;150813.81;;;19.51;88.43
48630;BME280;34426;52.180;4.462;2022-07-24T06:32:20;150816.28;;;19.52;87.23
48630;BME280;34426;52.180;4.462;2022-07-24T06:34:47;150821.34;;;19.54;87.06
48630;BME280;34426;52.180;4.462;2022-07-24T06:37:14;150820.06;;;19.54;87.55
48630;BME280;34426;52.180;4.462;2022-07-24T06:39:42;150827.59;;;19.57;86.39
48630;BME280;34426;52.180;4.462;2022-07-24T06:42:09;150835.13;;;19.60;86.28
48630;BME280;34426;52.180;4.462;2022-07-24T06:44:37;150841.38;;;19.62;86.53
48630;BME280;34426;52.180;4.462;2022-07-24T06:47:04;150853.91;;;19.67;86.85
48630;BME280;34426;52.180;4.462;2022-07-24T06:49:33;150871.53;;;19.75;86.66
48630;BME280;34426;52.180;4.462;2022-07-24T06:52:01;150874.06;;;19.76;86.44
48630;BME280;34426;52.180;4.462;2022-07-24T06:54:28;150880.34;;;19.78;86.86
48630;BME280;34426;52.180;4.462;2022-07-24T06:56:56;150877.81;;;19.77;86.29
48630;BME280;34426;52.180;4.462;2022-07-24T06:59:23;150879.06;;;19.78;86.50
48630;BME280;34426;52.180;4.462;2022-07-24T07:01:50;150870.28;;;19.74;86.47
48630;BME280;34426;52.180;4.462;2022-07-24T07:04:18;150870.28;;;19.74;86.71
48630;BME280;34426;52.180;4.462;2022-07-24T07:06:47;150891.59;;;19.83;86.13
48630;BME280;34426;52.180;4.462;2022-07-24T07:09:14;150912.91;;;19.92;85.88
48630;BME280;34426;52.180;4.462;2022-07-24T07:11:42;150944.31;;;20.04;85.96
48630;BME280;34426;52.180;4.462;2022-07-24T07:14:09;150970.66;;;20.15;86.14
48630;BME280;34426;52.180;4.462;2022-07-24T07:16:36;151000.75;;;20.27;85.22
48630;BME280;34426;52.180;4.462;2022-07-24T07:19:03;151023.31;;;20.37;83.99
48630;BME280;34426;52.180;4.462;2022-07-24T07:21:31;151049.72;;;20.48;83.16
48630;BME280;34426;52.180;4.462;2022-07-24T07:24:00;151052.19;;;20.49;83.84
48630;BME280;34426;52.180;4.462;2022-07-24T07:26:28;151071.03;;;20.56;82.00
48630;BME280;34426;52.180;4.462;2022-07-24T07:28:55;151082.28;;;20.61;80.20
48630;BME280;34426;52.180;4.462;2022-07-24T07:31:22;151092.41;;;20.65;78.92
48630;BME280;34426;52.180;4.462;2022-07-24T07:33:50;151113.75;;;20.74;79.41
48630;BME280;34426;52.180;4.462;2022-07-24T07:36:17;151140.09;;;20.85;79.96
48630;BME280;34426;52.180;4.462;2022-07-24T07:38:44;151155.19;;;20.91;78.73
48630;BME280;34426;52.180;4.462;2022-07-24T07:41:14;151185.28;;;21.03;77.99
48630;BME280;34426;52.180;4.462;2022-07-24T07:43:41;151221.72;;;21.18;77.28
48630;BME280;34426;52.180;4.462;2022-07-24T07:46:08;151288.22;;;21.45;76.64
48630;BME280;34426;52.180;4.462;2022-07-24T07:48:35;151310.91;;;21.54;75.70
48630;BME280;34426;52.180;4.462;2022-07-24T07:51:02;151336.00;;;21.65;73.79
48630;BME280;34426;52.180;4.462;2022-07-24T07:53:30;151344.78;;;21.68;72.30
48630;BME280;34426;52.180;4.462;2022-07-24T07:55:57;151381.19;;;21.83;72.57
48630;BME280;34426;52.180;4.462;2022-07-24T07:58:26;151428.94;;;22.03;72.33
48630;BME280;34426;52.180;4.462;2022-07-24T08:00:54;151454.06;;;22.13;72.25
48630;BME280;34426;52.180;4.462;2022-07-24T08:03:21;151461.56;;;22.16;72.04
48630;BME280;34426;52.180;4.462;2022-07-24T08:05:49;151445.28;;;22.09;70.54
48630;BME280;34426;52.180;4.462;2022-07-24T08:08:16;151408.84;;;21.94;70.98
48630;BME280;34426;52.180;4.462;2022-07-24T08:10:44;151401.28;;;21.91;71.57
48630;BME280;34426;52.180;4.462;2022-07-24T08:13:11;151401.28;;;21.91;72.82
48630;BME280;34426;52.180;4.462;2022-07-24T08:15:41;151421.41;;;22.00;72.58
48630;BME280;34426;52.180;4.462;2022-07-24T08:18:08;151449.00;;;22.11;72.21
48630;BME280;34426;52.180;4.462;2022-07-24T08:20:36;151456.53;;;22.14;72.62
48630;BME280;34426;52.180;4.462;2022-07-24T08:23:03;151459.06;;;22.15;72.02
48630;BME280;34426;52.180;4.462;2022-07-24T08:25:30;151454.06;;;22.13;72.03
48630;BME280;34426;52.180;4.462;2022-07-24T08:27:58;151441.50;;;22.08;71.01
48630;BME280;34426;52.180;4.462;2022-07-24T08:30:25;151447.75;;;22.10;71.78
48630;BME280;34426;52.180;4.462;2022-07-24T08:32:54;151445.28;;;22.09;71.47
48630;BME280;34426;52.180;4.462;2022-07-24T08:35:22;151423.88;;;22.01;70.79
48630;BME280;34426;52.180;4.462;2022-07-24T08:37:49;151442.75;;;22.08;70.45
48630;BME280;34426;52.180;4.462;2022-07-24T08:40:17;151462.84;;;22.17;70.03
48630;BME280;34426;52.180;4.462;2022-07-24T08:42:45;151491.78;;;22.28;70.08
48630;BME280;34426;52.180;4.462;2022-07-24T08:45:12;151526.94;;;22.43;69.93
48630;BME280;34426;52.180;4.462;2022-07-24T08:47:40;151554.56;;;22.54;68.73
48630;BME280;34426;52.180;4.462;2022-07-24T08:50:10;151580.97;;;22.65;67.91
48630;BME280;34426;52.180;4.462;2022-07-24T08:52:38;151598.56;;;22.72;67.25
48630;BME280;34426;52.180;4.462;2022-07-24T08:55:06;151609.88;;;22.77;66.75
48630;BME280;34426;52.180;4.462;2022-07-24T08:57:34;151629.94;;;22.85;65.95
48630;BME280;34426;52.180;4.462;2022-07-24T09:00:01;151643.81;;;22.91;64.51
48630;BME280;34426;52.180;4.462;2022-07-24T09:02:29;151653.84;;;22.95;64.32
48630;BME280;34426;52.180;4.462;2022-07-24T09:05:00;151671.44;;;23.02;65.23
48630;BME280;34426;52.180;4.462;2022-07-24T09:07:31;151707.94;;;23.17;63.21
48630;BME280;34426;52.180;4.462;2022-07-24T09:10:04;151725.53;;;23.24;62.04
48630;BME280;34426;52.180;4.462;2022-07-24T09:12:33;151736.84;;;23.29;61.28
48630;BME280;34426;52.180;4.462;2022-07-24T09:15:01;151751.91;;;23.35;62.89
48630;BME280;34426;52.180;4.462;2022-07-24T09:17:29;151770.78;;;23.42;61.50
48630;BME280;34426;52.180;4.462;2022-07-24T09:19:57;151787.13;;;23.49;61.54
48630;BME280;34426;52.180;4.462;2022-07-24T09:22:26;151803.44;;;23.56;61.65
48630;BME280;34426;52.180;4.462;2022-07-24T09:25:12;151814.75;;;23.60;61.01
48630;BME280;34426;52.180;4.462;2022-07-24T09:27:40;151823.56;;;23.64;61.13
48630;BME280;34426;52.180;4.462;2022-07-24T09:30:06;151846.22;;;23.73;60.31
48630;BME280;34426;52.180;4.462;2022-07-24T09:32:32;151853.72;;;23.76;60.34
48630;BME280;34426;52.180;4.462;2022-07-24T09:34:58;151868.88;;;23.83;61.68
48630;BME280;34426;52.180;4.462;2022-07-24T09:37:26;151875.13;;;23.85;60.60
48630;BME280;34426;52.180;4.462;2022-07-24T09:39:52;151894.00;;;23.93;60.56
48630;BME280;34426;52.180;4.462;2022-07-24T09:42:29;151906.59;;;23.98;60.66
48630;BME280;34426;52.180;4.462;2022-07-24T09:44:57;151912.84;;;24.00;59.43
48630;BME280;34426;52.180;4.462;2022-07-24T09:47:23;151929.19;;;24.07;59.59
48630;BME280;34426;52.180;4.462;2022-07-24T09:49:56;151921.66;;;24.04;59.27
48630;BME280;34426;52.180;4.462;2022-07-24T09:52:38;151930.50;;;24.08;59.04
48630;BME280;34426;52.180;4.462;2022-07-24T09:55:19;151944.31;;;24.13;59.73
48630;BME280;34426;52.180;4.462;2022-07-24T09:57:49;151987.06;;;24.31;59.04
48630;BME280;34426;52.180;4.462;2022-07-24T10:00:17;151993.31;;;24.33;56.99
48630;BME280;34426;52.180;4.462;2022-07-24T10:02:45;151980.75;;;24.28;56.99
48630;BME280;34426;52.180;4.462;2022-07-24T10:05:13;151983.28;;;24.29;56.53
48630;BME280;34426;52.180;4.462;2022-07-24T10:07:41;152016.00;;;24.43;56.67
48630;BME280;34426;52.180;4.462;2022-07-24T10:10:12;152044.97;;;24.54;56.96
48630;BME280;34426;52.180;4.462;2022-07-24T10:12:40;152044.97;;;24.54;55.56
48630;BME280;34426;52.180;4.462;2022-07-24T10:15:10;152053.75;;;24.58;56.07
48630;BME280;34426;52.180;4.462;2022-07-24T10:17:54;152078.94;;;24.68;54.91
48630;BME280;34426;52.180;4.462;2022-07-24T10:20:36;152090.22;;;24.73;54.98
48630;BME280;34426;52.180;4.462;2022-07-24T10:23:05;152095.28;;;24.75;55.19
48630;BME280;34426;52.180;4.462;2022-07-24T10:25:48;152120.44;;;24.85;55.04
48630;BME280;34426;52.180;4.462;2022-07-24T10:28:37;152143.06;;;24.95;53.96
48630;BME280;34426;52.180;4.462;2022-07-24T10:31:07;152155.66;;;25.00;53.56
48630;BME280;34426;52.180;4.462;2022-07-24T10:33:37;152166.97;;;25.04;52.96
48630;BME280;34426;52.180;4.462;2022-07-24T10:36:16;152183.28;;;25.11;52.80
48630;BME280;34426;52.180;4.462;2022-07-24T10:38:54;152202.19;;;25.19;52.37
48630;BME280;34426;52.180;4.462;2022-07-24T10:41:25;152205.97;;;25.20;51.88
48630;BME280;34426;52.180;4.462;2022-07-24T10:44:14;152231.19;;;25.30;52.21
48630;BME280;34426;52.180;4.462;2022-07-24T10:47:00;152256.34;;;25.41;51.77
48630;BME280;34426;52.180;4.462;2022-07-24T10:49:41;152253.81;;;25.40;49.95
48630;BME280;34426;52.180;4.462;2022-07-24T10:52:10;152268.94;;;25.46;51.21
48630;BME280;34426;52.180;4.462;2022-07-24T10:54:39;152276.44;;;25.49;49.72
48630;BME280;34426;52.180;4.462;2022-07-24T10:57:06;152307.94;;;25.62;49.66
48630;BME280;34426;52.180;4.462;2022-07-24T10:59:35;152309.19;;;25.62;50.13
48630;BME280;34426;52.180;4.462;2022-07-24T11:02:26;152357.03;;;25.82;50.84
48630;BME280;34426;52.180;4.462;2022-07-24T11:05:24;152389.75;;;25.95;49.88
48630;BME280;34426;52.180;4.462;2022-07-24T11:11:04;152414.94;;;26.05;48.00
48630;BME280;34426;52.180;4.462;2022-07-24T11:13:46;152441.34;;;26.16;48.18
48630;BME280;34426;52.180;4.462;2022-07-24T11:16:24;152455.22;;;26.22;48.13
48630;BME280;34426;52.180;4.462;2022-07-24T11:19:30;152490.47;;;26.36;47.95
48630;BME280;34426;52.180;4.462;2022-07-24T11:22:10;152535.78;;;26.55;47.18
48630;BME280;34426;52.180;4.462;2022-07-24T11:24:42;152562.28;;;26.66;48.40
48630;BME280;34426;52.180;4.462;2022-07-24T11:27:45;152550.88;;;26.61;47.38
48630;BME280;34426;52.180;4.462;2022-07-24T11:30:13;152568.59;;;26.68;47.23
48630;BME280;34426;52.180;4.462;2022-07-24T11:32:42;152571.09;;;26.69;47.47
48630;BME280;34426;52.180;4.462;2022-07-24T11:35:11;152606.31;;;26.84;47.83
48630;BME280;34426;52.180;4.462;2022-07-24T11:37:41;152586.22;;;26.75;47.23
48630;BME280;34426;52.180;4.462;2022-07-24T11:40:13;152593.72;;;26.78;46.52
48630;BME280;34426;52.180;4.462;2022-07-24T11:42:40;152606.31;;;26.84;46.92
48630;BME280;34426;52.180;4.462;2022-07-24T11:45:08;152592.47;;;26.78;46.12
48630;BME280;34426;52.180;4.462;2022-07-24T11:47:36;152591.25;;;26.77;47.04
48630;BME280;34426;52.180;4.462;2022-07-24T11:50:05;152626.47;;;26.92;46.66
48630;BME280;34426;52.180;4.462;2022-07-24T11:52:36;152650.41;;;27.02;46.46
48630;BME280;34426;52.180;4.462;2022-07-24T11:55:07;152645.38;;;27.00;45.33
48630;BME280;34426;52.180;4.462;2022-07-24T11:57:36;152651.66;;;27.02;46.89
48630;BME280;34426;52.180;4.462;2022-07-24T12:00:06;152681.88;;;27.14;46.42
48630;BME280;34426;52.180;4.462;2022-07-24T12:02:34;152712.09;;;27.27;46.50
48630;BME280;34426;52.180;4.462;2022-07-24T12:05:02;152722.25;;;27.31;45.57
48630;BME280;34426;52.180;4.462;2022-07-24T12:07:30;152697.00;;;27.21;45.20
48630;BME280;34426;52.180;4.462;2022-07-24T12:10:00;152729.81;;;27.34;46.16
48630;BME280;34426;52.180;4.462;2022-07-24T12:12:28;152770.09;;;27.50;45.13
48630;BME280;34426;52.180;4.462;2022-07-24T12:15:02;152802.84;;;27.64;44.82
48630;BME280;34426;52.180;4.462;2022-07-24T12:17:31;152809.13;;;27.66;43.93
48630;BME280;34426;52.180;4.462;2022-07-24T12:19:59;152812.91;;;27.68;44.17
48630;BME280;34426;52.180;4.462;2022-07-24T12:22:28;152820.47;;;27.71;44.22
48630;BME280;34426;52.180;4.462;2022-07-24T12:24:57;152857.03;;;27.86;43.76
48630;BME280;34426;52.180;4.462;2022-07-24T12:27:38;152886.06;;;27.98;44.12
48630;BME280;34426;52.180;4.462;2022-07-24T12:30:21;152949.03;;;28.23;44.43
48630;BME280;34426;52.180;4.462;2022-07-24T12:33:02;152985.56;;;28.38;44.25
48630;BME280;34426;52.180;4.462;2022-07-24T12:35:32;153004.50;;;28.46;44.51
48630;BME280;34426;52.180;4.462;2022-07-24T12:37:59;153017.09;;;28.51;44.07
48630;BME280;34426;52.180;4.462;2022-07-24T12:40:29;153102.84;;;28.86;43.78
48630;BME280;34426;52.180;4.462;2022-07-24T12:43:14;153186.06;;;29.20;43.16
48630;BME280;34426;52.180;4.462;2022-07-24T12:45:40;153236.47;;;29.40;42.11
48630;BME280;34426;52.180;4.462;2022-07-24T12:48:17;153227.66;;;29.37;41.30
48630;BME280;34426;52.180;4.462;2022-07-24T12:50:58;153231.44;;;29.38;41.60
48630;BME280;34426;52.180;4.462;2022-07-24T12:53:25;153326.09;;;29.77;41.70
48630;BME280;34426;52.180;4.462;2022-07-24T12:56:04;153317.16;;;29.73;39.97
48630;BME280;34426;52.180;4.462;2022-07-24T12:58:53;153308.34;;;29.70;40.27
48630;BME280;34426;52.180;4.462;2022-07-24T13:01:19;153392.88;;;30.04;40.01
48630;BME280;34426;52.180;4.462;2022-07-24T13:03:57;153492.59;;;30.45;39.12